Portada
METAR-TAF:

METAR-TAF

Aeropuertos :

Funchal, Madeira, Portugal

Aeropuerto de Madeira

latitud: 32-41-52N, longitud: 016-46-28W, altitud: 59 m

Observación

El informe se hizo hace 47 minutos, a las 12:30 UTC
Viento 5 kt del este, variando entre este y sureste
Temperatura 24°C
Humedad 61%
Presión 1024 hPa
Visibilidad 10 km o más
Escasas nubes a una altura de 1500 ft

METAR: LPMA 171230Z 10005KT 080V140 9999 FEW015 24/16 Q1024

Hora: 14:17 (13:17 UTC)

Pronóstico

El informe se hizo hace 2 horas y 17 minutos, a las 11:00 UTC
Pronóstico válido del 17 a las 12 UTC al 18 a las 12 UTC
Viento 5 kt con dirección variable
Visibilidad 10 km o más
Nubes dispersas a una altura de 1600 ft
Temporalmente
del 17 a las 15 UTC al 17 a las 21 UTC
Visibilidad: 6000 m
Nubes dispersas a una altura de 800 ft
Cielo nuboso a una altura de 1400 ft
lluvia ligera, llovizna

TAF: LPMA 171100Z 1712/1812 VRB05KT 9999 SCT016 TEMPO 1715/1721 6000 -RADZ SCT008 BKN014

Observaciones y pronósticos meteorológicos de más de 4000 aeropuertos (mensajes METAR y TAF).

Los puntos amarillos y rojos representan las estaciones disponibles.

Ponga el ratón en el punto deseado para ver el nombre de la estación.

Haga clic para ver las observaciones y los pronósticos meteorológicos.

Para cambiar el mapa : haga clic en los botones verdes con una cruz de color negro para hacer un zoom, en el botón verde con un guión para alejar o en las flechas verdes para mapas adyacentes.


METAR-TAF: